Aeroporto :







RITROVATECI SU...

 
LOGIN :

Iscrizione | Disclaimer

   EN    FR    IT 

 









Sommario :    VFR   VFR Marginale   IFR   IFR Intensivo   IFR Molto Intensivo
Visibilità : 
Base nubi : 
>= 8 km
>= 3000ft
5 / 8 km
1000 / 3000 ft
1500m / 5 km
500 / 1000 ft
800 / 1500m
200 / 500 ft
< 800m
< 200 ft
Simboli :   Temporali  Nebbia  Neve Forte  Precipitazioni Forti  Vento > 20 kt







- Altitudine del aeroporto : 83 ft


KBHB - Hancock County-Bar Harbor

ULTIMO METAR :
  • 230556Z AUTO 06012G18KT 4SM -RA BR BKN008 OVC011 10/09 A3002 RMK AO2 CIG 005V009 SLP171 P0010 60045 T01000094 10128 20100 56015

METARs OBSOLETI :
  • 230511Z AUTO 05014G22KT 5SM -RA BR OVC008 11/10 A3003 RMK AO2 CIG 005V011 P0001
  • 230456Z AUTO 06011G19KT 2 1/2SM RA BR OVC006 11/10 A3004 RMK AO2 SLP175 P0017 T01060100
  • 230356Z AUTO 05010KT 4SM RA BR OVC006 12/11 A3005 RMK AO2 RAB08 SLP180 P0008 T01170111

TAF KBHB
Valido dal 23 a 06 ore il 24 a 06 ore UTC


230523Z 2306/2406 05013G21KT 4SM -RA OVC008
FM231200 03011KT 6SM -RA OVC012
FM231500 03011KT P6SM VCSH OVC018
FM232200 01007KT P6SM OVC013
FM240500 VRB03KT 6SM -RA OVC009
FIR KZBW / America del Nord



MetMap, La meteo Aeronautica in un colpo d'occhio ! - Copyright ORBIFLY Dicembre 2007 - Disclaimer

ORBIFLY MET'MAP TEAM :

Programmazione e sviluppo : Alexandra Zaïnal
Concezione e sviluppo : Baudouin d'Aumeries
Co-Programmazione e sviluppo : Marc-Olivier Méhu
Supporto tecnico e logistico : Manuel Goepfert
Aiuto per la traduzione : Arnaldo La Scala

Contatto : metmap@orbifly.com




FONTI E CREDITI :

   NOAA